Flight Track Log - Related Links

Times and Time Zones

All times are in EDT time to prevent confusion due to time zone crossing. See the ASQ5745 flight status page for this flight to view local times or setup timezone preferences in your user account.

Time Position Orientation Groundspeed Altitude Reporting Facility
EDT Latitude Longitude Course Direction KTS MPH feet Rate Location/Type
Sun 08:31:23 AM 38.9833 -77.4667 North 201 231 1,900  Level Potomac TRACON
Sun 08:32:23 AM 39.0500 -77.4500 11° North 237 273 5,300 3,250 Climbing Potomac TRACON
Sun 08:33:23 AM 39.1167 -77.4500 360° North 254 292 8,400 1,947 Climbing Potomac TRACON
Sun 08:34:00 AM 39.2823 -77.4500 North  Level FlightAware Approximate
Sun 08:35:00 AM 39.3695 -77.4500 North  Level FlightAware Approximate
Sun 08:35:31 AM 39.2869 -77.4444 North 300 345 11,400  Level Washington Center
Sun 08:36:00 AM 39.4567 -77.4500 North  Level FlightAware Approximate
Sun 08:36:32 AM 39.3828 -77.4469 359° North 325 374 13,400  Level Washington Center
Sun 08:38:29 AM 39.5844 -77.4494 359° North 344 396 17,500 1,864 Climbing New York Center
Sun 08:39:29 AM 39.6781 -77.4528 358° North 344 396 18,900 1,250 Climbing New York Center
Sun 08:40:29 AM 39.7658 -77.4531 360° North 349 402 20,000 1,050 Climbing New York Center
Sun 08:41:29 AM 39.8658 -77.4517 North 349 402 21,000 650 Climbing New York Center
Sun 08:42:29 AM 39.9744 -77.4486 North 362 417 21,300 900 Climbing New York Center
Sun 08:43:29 AM 40.0808 -77.4478 360° North 375 432 22,800 1,350 Climbing New York Center
Sun 08:44:29 AM 40.1925 -77.4286 North 380 437 24,000 850 Climbing New York Center
Sun 08:45:29 AM 40.2875 -77.3344 37° Northeast 376 433 24,500 500 Climbing New York Center
Sun 08:46:29 AM 40.3819 -77.2453 36° Northeast 397 457 25,000 500 Climbing New York Center
Sun 08:47:29 AM 40.4786 -77.1533 36° Northeast 417 480 25,500 500 Climbing New York Center
Sun 08:48:29 AM 40.5753 -77.0639 35° Northeast 427 491 26,000 500 Climbing New York Center
Sun 08:49:29 AM 40.6742 -76.9689 36° Northeast 427 491 26,500 500 Climbing New York Center
Sun 08:50:29 AM 40.7744 -76.8792 34° Northeast 427 491 27,000 250 Climbing New York Center
Sun 08:51:29 AM 40.8711 -76.7864 36° Northeast 427 491 27,000  Level New York Center
Sun 08:52:29 AM 40.9717 -76.6908 36° Northeast 432 497 27,000  Level New York Center
Sun 08:53:29 AM 41.0678 -76.6028 35° Northeast 432 497 27,000  Level New York Center
Sun 08:54:29 AM 41.1661 -76.5094 36° Northeast 425 489 27,000 -500 Level New York Center
Sun 08:55:29 AM 41.2644 -76.4156 36° Northeast 425 489 26,000 -1,300 Descending New York Center
Sun 08:56:29 AM 41.3647 -76.3189 36° Northeast 430 495 24,400 -1,000 Descending New York Center
Sun 08:57:29 AM 41.4561 -76.2322 35° Northeast 447 514 24,000 -121 Descending New York Center
Sun 08:59:48 AM 41.6939 -76.0047 36° Northeast 439 505 24,000  Level Boston Center
Sun 09:00:48 AM 41.7908 -75.9069 37° Northeast 439 505 24,000  Level Boston Center
Sun 09:01:48 AM 41.8894 -75.8119 36° Northeast 439 505 24,000  Level Boston Center
Sun 09:02:48 AM 41.9861 -75.7167 36° Northeast 439 505 24,000  Level Boston Center
Sun 09:03:48 AM 42.0869 -75.6211 35° Northeast 439 505 24,000 -100 Level Boston Center
Sun 09:04:48 AM 42.1814 -75.5194 39° Northeast 439 505 23,800 -950 Descending Boston Center
Sun 09:05:48 AM 42.2378 -75.3594 65° Northeast 441 507 22,100 -1,750 Descending Boston Center
Sun 09:06:48 AM 42.2897 -75.2019 66° East 441 507 20,300 -1,950 Descending Boston Center
Sun 09:07:48 AM 42.3347 -75.0578 67° East 441 507 18,200 -1,950 Descending Boston Center
Sun 09:08:48 AM 42.3836 -74.9194 64° Northeast 431 496 16,400 -1,800 Descending Boston Center
Sun 09:09:48 AM 42.4283 -74.7775 67° East 415 478 14,600 -1,909 Descending Boston Center
Sun 09:10:16 AM 42.4461 -74.7219 67° East 389 448 13,600 -2,000 Descending Boston Center
Sun 09:10:48 AM 42.4708 -74.6442 67° East 393 452 12,600 -1,818 Descending Boston Center
Sun 09:11:22 AM 42.4950 -74.5717 66° East 369 425 11,600 -1,400 Descending Boston Center
Sun 09:11:48 AM 42.5125 -74.5217 65° Northeast 368 423 11,200 -590 Descending Boston Center
Sun 09:12:23 AM 42.5303 -74.4631 68° East 308 354 11,000 -400 Descending Boston Center
Sun 09:12:48 AM 42.5439 -74.4128 70° East 318 366 10,800 -1,082 Descending Boston Center
Sun 09:13:24 AM 42.5450 -74.3450 89° East 315 362 9,900 -1,400 Descending Boston Center
Sun 09:13:48 AM 42.5417 -74.2944 95° East 302 348 9,400 -2,200 Descending Boston Center
Sun 09:14:24 AM 42.5364 -74.2322 97° East 297 342 7,700 -2,300 Descending Boston Center
Sun 09:14:48 AM 42.5350 -74.1842 92° East 302 348 7,100 -1,869 Descending Boston Center
Sun 09:15:25 AM 42.5339 -74.1250 91° East 289 333 5,800 -1,900 Descending Boston Center
Sun 09:15:48 AM 42.5325 -74.0769 92° East 289 333 5,200 -1,770 Descending Boston Center
Sun 09:16:26 AM 42.5333 -74.0122 89° East 278 320 4,000 -1,333 Descending Boston Center
Sun 09:17:00 AM 42.5403 -73.9617 79° East 268 308 3,600 -800 Descending Boston Center
Sun 09:17:26 AM 42.5469 -73.9281 75° East 213 245 3,200 -800 Descending Boston Center
Sun 09:18:00 AM 42.5600 -73.8975 60° Northeast 219 252 2,800 -590 Descending Boston Center
Sun 09:18:27 AM 42.5811 -73.8697 44° Northeast 192 221 2,600 -400 Descending Boston Center
Sun 09:19:00 AM 42.5919 -73.8306 69° East 198 228 2,400 -364 Descending Boston Center

Login

Don't have an account? Register now (free) for customized features, flight alerts, and more!